sensor_id;sensor_type;location;lat;lon;timestamp;P1;durP1;ratioP1;P2;durP2;ratioP2
24485;SDS011;13449;49.374;8.584;2023-05-07T00:01:01;7.40;;;2.42;;
24485;SDS011;13449;49.374;8.584;2023-05-07T00:03:31;4.22;;;2.13;;
24485;SDS011;13449;49.374;8.584;2023-05-07T00:05:58;2.78;;;1.90;;
24485;SDS011;13449;49.374;8.584;2023-05-07T00:08:25;3.80;;;2.60;;
24485;SDS011;13449;49.374;8.584;2023-05-07T00:10:51;1.80;;;1.48;;
24485;SDS011;13449;49.374;8.584;2023-05-07T00:13:21;5.82;;;2.72;;
24485;SDS011;13449;49.374;8.584;2023-05-07T00:15:48;8.40;;;1.63;;
24485;SDS011;13449;49.374;8.584;2023-05-07T00:18:15;6.43;;;1.60;;
24485;SDS011;13449;49.374;8.584;2023-05-07T00:20:42;4.03;;;2.13;;
24485;SDS011;13449;49.374;8.584;2023-05-07T00:23:08;2.67;;;1.90;;
24485;SDS011;13449;49.374;8.584;2023-05-07T00:25:35;8.80;;;2.20;;
24485;SDS011;13449;49.374;8.584;2023-05-07T00:28:01;2.58;;;2.25;;
24485;SDS011;13449;49.374;8.584;2023-05-07T00:30:29;1.80;;;1.33;;
24485;SDS011;13449;49.374;8.584;2023-05-07T00:32:56;3.33;;;1.52;;
24485;SDS011;13449;49.374;8.584;2023-05-07T00:35:23;2.22;;;1.55;;
24485;SDS011;13449;49.374;8.584;2023-05-07T00:37:49;1.60;;;1.50;;
24485;SDS011;13449;49.374;8.584;2023-05-07T00:40:16;2.05;;;1.48;;
24485;SDS011;13449;49.374;8.584;2023-05-07T00:42:42;2.20;;;1.38;;
24485;SDS011;13449;49.374;8.584;2023-05-07T00:45:13;1.70;;;1.58;;
24485;SDS011;13449;49.374;8.584;2023-05-07T00:47:42;2.38;;;1.25;;
24485;SDS011;13449;49.374;8.584;2023-05-07T00:50:12;3.05;;;1.75;;
24485;SDS011;13449;49.374;8.584;2023-05-07T00:52:39;1.85;;;1.35;;
24485;SDS011;13449;49.374;8.584;2023-05-07T00:55:07;3.10;;;1.58;;
24485;SDS011;13449;49.374;8.584;2023-05-07T00:57:36;2.63;;;1.60;;
24485;SDS011;13449;49.374;8.584;2023-05-07T01:00:04;7.85;;;2.20;;
24485;SDS011;13449;49.374;8.584;2023-05-07T01:02:32;2.33;;;2.00;;
24485;SDS011;13449;49.374;8.584;2023-05-07T01:04:58;1.98;;;1.80;;
24485;SDS011;13449;49.374;8.584;2023-05-07T01:07:31;4.27;;;1.97;;
24485;SDS011;13449;49.374;8.584;2023-05-07T01:09:58;5.07;;;2.30;;
24485;SDS011;13449;49.374;8.584;2023-05-07T01:12:25;3.05;;;1.75;;
24485;SDS011;13449;49.374;8.584;2023-05-07T01:14:51;5.60;;;2.28;;
24485;SDS011;13449;49.374;8.584;2023-05-07T01:17:20;3.85;;;2.50;;
24485;SDS011;13449;49.374;8.584;2023-05-07T01:19:47;3.72;;;2.50;;
24485;SDS011;13449;49.374;8.584;2023-05-07T01:22:16;6.90;;;2.78;;
24485;SDS011;13449;49.374;8.584;2023-05-07T01:24:48;3.78;;;2.20;;
24485;SDS011;13449;49.374;8.584;2023-05-07T01:27:14;3.03;;;2.17;;
24485;SDS011;13449;49.374;8.584;2023-05-07T01:29:43;3.08;;;2.25;;
24485;SDS011;13449;49.374;8.584;2023-05-07T01:32:10;4.95;;;2.33;;
24485;SDS011;13449;49.374;8.584;2023-05-07T01:34:37;3.95;;;2.40;;
24485;SDS011;13449;49.374;8.584;2023-05-07T01:37:05;5.38;;;2.55;;
24485;SDS011;13449;49.374;8.584;2023-05-07T01:39:38;8.02;;;3.20;;
24485;SDS011;13449;49.374;8.584;2023-05-07T01:42:06;10.60;;;2.90;;
24485;SDS011;13449;49.374;8.584;2023-05-07T01:44:32;5.68;;;2.60;;
24485;SDS011;13449;49.374;8.584;2023-05-07T01:46:59;3.25;;;1.83;;
24485;SDS011;13449;49.374;8.584;2023-05-07T01:49:27;4.15;;;2.45;;
24485;SDS011;13449;49.374;8.584;2023-05-07T01:51:54;4.20;;;2.38;;
24485;SDS011;13449;49.374;8.584;2023-05-07T01:54:28;6.40;;;3.08;;
24485;SDS011;13449;49.374;8.584;2023-05-07T01:56:55;3.65;;;2.33;;
24485;SDS011;13449;49.374;8.584;2023-05-07T01:59:25;2.85;;;2.33;;
24485;SDS011;13449;49.374;8.584;2023-05-07T02:01:52;5.90;;;2.28;;
24485;SDS011;13449;49.374;8.584;2023-05-07T02:04:24;3.20;;;2.00;;
24485;SDS011;13449;49.374;8.584;2023-05-07T02:06:51;5.75;;;2.28;;
24485;SDS011;13449;49.374;8.584;2023-05-07T02:09:18;3.03;;;2.30;;
24485;SDS011;13449;49.374;8.584;2023-05-07T02:11:47;1.58;;;1.48;;
24485;SDS011;13449;49.374;8.584;2023-05-07T02:14:14;3.17;;;1.80;;
24485;SDS011;13449;49.374;8.584;2023-05-07T02:16:41;2.38;;;1.55;;
24485;SDS011;13449;49.374;8.584;2023-05-07T02:19:08;2.88;;;1.77;;
24485;SDS011;13449;49.374;8.584;2023-05-07T02:21:34;2.70;;;2.38;;
24485;SDS011;13449;49.374;8.584;2023-05-07T02:24:00;2.35;;;1.67;;
24485;SDS011;13449;49.374;8.584;2023-05-07T02:26:29;7.82;;;2.25;;
24485;SDS011;13449;49.374;8.584;2023-05-07T02:28:56;5.15;;;2.00;;
24485;SDS011;13449;49.374;8.584;2023-05-07T02:31:22;4.05;;;2.03;;
24485;SDS011;13449;49.374;8.584;2023-05-07T02:33:49;5.82;;;2.10;;
24485;SDS011;13449;49.374;8.584;2023-05-07T02:36:15;5.75;;;1.95;;
24485;SDS011;13449;49.374;8.584;2023-05-07T02:38:42;4.80;;;2.13;;
24485;SDS011;13449;49.374;8.584;2023-05-07T02:41:11;10.88;;;2.33;;
24485;SDS011;13449;49.374;8.584;2023-05-07T02:43:37;3.22;;;1.95;;
24485;SDS011;13449;49.374;8.584;2023-05-07T02:46:04;8.13;;;2.15;;
24485;SDS011;13449;49.374;8.584;2023-05-07T02:48:32;5.22;;;2.45;;
24485;SDS011;13449;49.374;8.584;2023-05-07T02:50:59;2.47;;;2.15;;
24485;SDS011;13449;49.374;8.584;2023-05-07T02:53:28;4.68;;;2.25;;
24485;SDS011;13449;49.374;8.584;2023-05-07T02:55:56;1.75;;;1.40;;
24485;SDS011;13449;49.374;8.584;2023-05-07T02:58:23;2.42;;;1.95;;
24485;SDS011;13449;49.374;8.584;2023-05-07T03:00:50;3.28;;;2.33;;
24485;SDS011;13449;49.374;8.584;2023-05-07T03:03:16;4.15;;;2.05;;
24485;SDS011;13449;49.374;8.584;2023-05-07T03:05:43;1.95;;;1.55;;
24485;SDS011;13449;49.374;8.584;2023-05-07T03:08:12;3.13;;;1.58;;
24485;SDS011;13449;49.374;8.584;2023-05-07T03:10:44;2.10;;;1.48;;
24485;SDS011;13449;49.374;8.584;2023-05-07T03:13:10;4.00;;;1.58;;
24485;SDS011;13449;49.374;8.584;2023-05-07T03:15:37;4.82;;;1.50;;
24485;SDS011;13449;49.374;8.584;2023-05-07T03:18:03;1.98;;;1.55;;
24485;SDS011;13449;49.374;8.584;2023-05-07T03:20:30;3.53;;;2.60;;
24485;SDS011;13449;49.374;8.584;2023-05-07T03:22:57;3.40;;;2.05;;
24485;SDS011;13449;49.374;8.584;2023-05-07T03:25:26;1.67;;;1.35;;
24485;SDS011;13449;49.374;8.584;2023-05-07T03:27:52;3.40;;;1.70;;
24485;SDS011;13449;49.374;8.584;2023-05-07T03:30:19;3.22;;;2.05;;
24485;SDS011;13449;49.374;8.584;2023-05-07T03:32:46;4.13;;;1.83;;
24485;SDS011;13449;49.374;8.584;2023-05-07T03:35:12;2.00;;;1.58;;
24485;SDS011;13449;49.374;8.584;2023-05-07T03:37:39;1.95;;;1.75;;
24485;SDS011;13449;49.374;8.584;2023-05-07T03:40:06;4.18;;;2.65;;
24485;SDS011;13449;49.374;8.584;2023-05-07T03:42:34;2.03;;;1.40;;
24485;SDS011;13449;49.374;8.584;2023-05-07T03:45:03;2.10;;;1.70;;
24485;SDS011;13449;49.374;8.584;2023-05-07T03:47:29;4.93;;;2.53;;
24485;SDS011;13449;49.374;8.584;2023-05-07T03:49:56;3.35;;;2.30;;
24485;SDS011;13449;49.374;8.584;2023-05-07T03:52:25;3.60;;;2.20;;
24485;SDS011;13449;49.374;8.584;2023-05-07T03:54:52;4.38;;;1.80;;
24485;SDS011;13449;49.374;8.584;2023-05-07T03:57:19;4.63;;;1.95;;
24485;SDS011;13449;49.374;8.584;2023-05-07T03:59:46;1.88;;;1.63;;
24485;SDS011;13449;49.374;8.584;2023-05-07T04:02:12;1.95;;;1.48;;
24485;SDS011;13449;49.374;8.584;2023-05-07T04:04:39;4.72;;;1.90;;
24485;SDS011;13449;49.374;8.584;2023-05-07T04:07:06;5.32;;;2.13;;
24485;SDS011;13449;49.374;8.584;2023-05-07T04:09:33;2.78;;;2.35;;
24485;SDS011;13449;49.374;8.584;2023-05-07T04:12:00;4.78;;;2.45;;
24485;SDS011;13449;49.374;8.584;2023-05-07T04:14:27;1.83;;;1.65;;
24485;SDS011;13449;49.374;8.584;2023-05-07T04:16:53;2.15;;;1.95;;
24485;SDS011;13449;49.374;8.584;2023-05-07T04:19:20;3.13;;;2.15;;
24485;SDS011;13449;49.374;8.584;2023-05-07T04:21:47;2.75;;;1.95;;
24485;SDS011;13449;49.374;8.584;2023-05-07T04:24:13;3.92;;;2.55;;
24485;SDS011;13449;49.374;8.584;2023-05-07T04:26:40;1.77;;;1.50;;
24485;SDS011;13449;49.374;8.584;2023-05-07T04:29:06;2.00;;;1.83;;
24485;SDS011;13449;49.374;8.584;2023-05-07T04:31:33;3.38;;;2.63;;
24485;SDS011;13449;49.374;8.584;2023-05-07T04:34:02;2.67;;;2.08;;
24485;SDS011;13449;49.374;8.584;2023-05-07T04:36:28;2.88;;;2.03;;
24485;SDS011;13449;49.374;8.584;2023-05-07T04:38:55;3.63;;;2.17;;
24485;SDS011;13449;49.374;8.584;2023-05-07T04:41:22;3.40;;;2.55;;
24485;SDS011;13449;49.374;8.584;2023-05-07T04:43:48;4.70;;;2.80;;
24485;SDS011;13449;49.374;8.584;2023-05-07T04:46:15;8.73;;;3.03;;
24485;SDS011;13449;49.374;8.584;2023-05-07T04:48:41;7.78;;;3.13;;
24485;SDS011;13449;49.374;8.584;2023-05-07T04:51:10;4.68;;;3.13;;
24485;SDS011;13449;49.374;8.584;2023-05-07T04:53:37;7.00;;;2.63;;
24485;SDS011;13449;49.374;8.584;2023-05-07T04:56:04;6.43;;;3.20;;
24485;SDS011;13449;49.374;8.584;2023-05-07T04:58:30;4.93;;;3.00;;
24485;SDS011;13449;49.374;8.584;2023-05-07T05:00:58;8.20;;;3.20;;
24485;SDS011;13449;49.374;8.584;2023-05-07T05:03:25;10.63;;;4.13;;
24485;SDS011;13449;49.374;8.584;2023-05-07T05:05:52;5.90;;;2.80;;
24485;SDS011;13449;49.374;8.584;2023-05-07T05:08:19;5.45;;;3.63;;
24485;SDS011;13449;49.374;8.584;2023-05-07T05:10:45;8.25;;;3.05;;
24485;SDS011;13449;49.374;8.584;2023-05-07T05:13:12;6.95;;;3.83;;
24485;SDS011;13449;49.374;8.584;2023-05-07T05:15:39;6.03;;;3.60;;
24485;SDS011;13449;49.374;8.584;2023-05-07T05:18:08;4.78;;;3.80;;
24485;SDS011;13449;49.374;8.584;2023-05-07T05:20:34;6.78;;;4.18;;
24485;SDS011;13449;49.374;8.584;2023-05-07T05:23:01;7.25;;;3.40;;
24485;SDS011;13449;49.374;8.584;2023-05-07T05:25:27;9.60;;;3.60;;
24485;SDS011;13449;49.374;8.584;2023-05-07T05:27:54;4.45;;;2.80;;
24485;SDS011;13449;49.374;8.584;2023-05-07T05:30:21;8.50;;;3.97;;
24485;SDS011;13449;49.374;8.584;2023-05-07T05:32:48;5.70;;;3.47;;
24485;SDS011;13449;49.374;8.584;2023-05-07T05:35:14;4.65;;;2.95;;
24485;SDS011;13449;49.374;8.584;2023-05-07T05:37:41;4.72;;;3.63;;
24485;SDS011;13449;49.374;8.584;2023-05-07T05:40:08;7.28;;;4.22;;
24485;SDS011;13449;49.374;8.584;2023-05-07T05:42:35;6.05;;;4.15;;
24485;SDS011;13449;49.374;8.584;2023-05-07T05:45:01;10.30;;;4.10;;
24485;SDS011;13449;49.374;8.584;2023-05-07T05:47:28;6.05;;;3.53;;
24485;SDS011;13449;49.374;8.584;2023-05-07T05:49:56;7.00;;;3.67;;
24485;SDS011;13449;49.374;8.584;2023-05-07T05:52:24;4.97;;;3.63;;
24485;SDS011;13449;49.374;8.584;2023-05-07T05:54:51;7.20;;;3.70;;
24485;SDS011;13449;49.374;8.584;2023-05-07T05:57:18;4.85;;;4.25;;
24485;SDS011;13449;49.374;8.584;2023-05-07T05:59:45;6.72;;;3.35;;
24485;SDS011;13449;49.374;8.584;2023-05-07T06:02:13;5.97;;;4.25;;
24485;SDS011;13449;49.374;8.584;2023-05-07T06:04:40;4.05;;;3.60;;
24485;SDS011;13449;49.374;8.584;2023-05-07T06:07:07;6.88;;;3.58;;
24485;SDS011;13449;49.374;8.584;2023-05-07T06:09:33;7.10;;;3.05;;
24485;SDS011;13449;49.374;8.584;2023-05-07T06:11:59;4.78;;;3.35;;
24485;SDS011;13449;49.374;8.584;2023-05-07T06:14:26;7.78;;;3.60;;
24485;SDS011;13449;49.374;8.584;2023-05-07T06:16:52;8.50;;;3.70;;
24485;SDS011;13449;49.374;8.584;2023-05-07T06:19:21;4.50;;;3.10;;
24485;SDS011;13449;49.374;8.584;2023-05-07T06:21:50;3.85;;;2.90;;
24485;SDS011;13449;49.374;8.584;2023-05-07T06:24:16;12.60;;;3.17;;
24485;SDS011;13449;49.374;8.584;2023-05-07T06:26:43;3.30;;;2.60;;
24485;SDS011;13449;49.374;8.584;2023-05-07T06:29:09;10.25;;;3.25;;
24485;SDS011;13449;49.374;8.584;2023-05-07T06:31:36;5.18;;;3.70;;
24485;SDS011;13449;49.374;8.584;2023-05-07T06:34:02;6.50;;;3.03;;
24485;SDS011;13449;49.374;8.584;2023-05-07T06:36:29;4.70;;;2.83;;
24485;SDS011;13449;49.374;8.584;2023-05-07T06:39:00;5.50;;;3.17;;
24485;SDS011;13449;49.374;8.584;2023-05-07T06:41:27;9.15;;;2.95;;
24485;SDS011;13449;49.374;8.584;2023-05-07T06:43:54;6.85;;;3.28;;
24485;SDS011;13449;49.374;8.584;2023-05-07T06:46:20;7.43;;;3.03;;
24485;SDS011;13449;49.374;8.584;2023-05-07T06:48:47;5.93;;;2.90;;
24485;SDS011;13449;49.374;8.584;2023-05-07T06:51:13;6.80;;;3.53;;
24485;SDS011;13449;49.374;8.584;2023-05-07T06:53:39;4.65;;;3.33;;
24485;SDS011;13449;49.374;8.584;2023-05-07T06:56:06;3.35;;;2.47;;
24485;SDS011;13449;49.374;8.584;2023-05-07T06:58:33;7.75;;;2.97;;
24485;SDS011;13449;49.374;8.584;2023-05-07T07:01:00;6.47;;;3.22;;
24485;SDS011;13449;49.374;8.584;2023-05-07T07:03:29;4.43;;;2.78;;
24485;SDS011;13449;49.374;8.584;2023-05-07T07:05:58;4.43;;;2.60;;
24485;SDS011;13449;49.374;8.584;2023-05-07T07:08:25;4.97;;;2.55;;
24485;SDS011;13449;49.374;8.584;2023-05-07T07:10:51;6.10;;;2.38;;
24485;SDS011;13449;49.374;8.584;2023-05-07T07:13:18;6.22;;;3.10;;
24485;SDS011;13449;49.374;8.584;2023-05-07T07:15:45;5.18;;;2.70;;
24485;SDS011;13449;49.374;8.584;2023-05-07T07:18:12;11.93;;;2.20;;
24485;SDS011;13449;49.374;8.584;2023-05-07T07:20:39;7.70;;;2.50;;
24485;SDS011;13449;49.374;8.584;2023-05-07T07:23:07;3.83;;;2.22;;
24485;SDS011;13449;49.374;8.584;2023-05-07T07:25:34;3.88;;;1.92;;
24485;SDS011;13449;49.374;8.584;2023-05-07T07:28:00;3.55;;;2.25;;
24485;SDS011;13449;49.374;8.584;2023-05-07T07:30:28;6.03;;;2.42;;
24485;SDS011;13449;49.374;8.584;2023-05-07T07:32:55;7.13;;;1.75;;
24485;SDS011;13449;49.374;8.584;2023-05-07T07:35:26;7.78;;;2.33;;
24485;SDS011;13449;49.374;8.584;2023-05-07T07:37:53;8.00;;;2.00;;
24485;SDS011;13449;49.374;8.584;2023-05-07T07:40:19;5.13;;;2.10;;
24485;SDS011;13449;49.374;8.584;2023-05-07T07:42:46;2.45;;;2.05;;
24485;SDS011;13449;49.374;8.584;2023-05-07T07:45:15;2.78;;;1.90;;
24485;SDS011;13449;49.374;8.584;2023-05-07T07:47:42;6.78;;;2.53;;
24485;SDS011;13449;49.374;8.584;2023-05-07T07:50:09;7.57;;;2.13;;
24485;SDS011;13449;49.374;8.584;2023-05-07T07:52:47;4.68;;;2.17;;
24485;SDS011;13449;49.374;8.584;2023-05-07T07:55:19;3.40;;;1.88;;
24485;SDS011;13449;49.374;8.584;2023-05-07T07:57:49;1.90;;;1.70;;
24485;SDS011;13449;49.374;8.584;2023-05-07T08:00:16;2.75;;;2.10;;
24485;SDS011;13449;49.374;8.584;2023-05-07T08:02:45;1.63;;;1.40;;
24485;SDS011;13449;49.374;8.584;2023-05-07T08:05:11;3.95;;;2.08;;
24485;SDS011;13449;49.374;8.584;2023-05-07T08:07:38;4.43;;;2.08;;
24485;SDS011;13449;49.374;8.584;2023-05-07T08:10:06;3.13;;;1.80;;
24485;SDS011;13449;49.374;8.584;2023-05-07T08:12:36;2.95;;;1.67;;
24485;SDS011;13449;49.374;8.584;2023-05-07T08:15:03;2.13;;;1.38;;
24485;SDS011;13449;49.374;8.584;2023-05-07T08:17:33;2.15;;;1.73;;
24485;SDS011;13449;49.374;8.584;2023-05-07T08:19:59;3.38;;;1.67;;
24485;SDS011;13449;49.374;8.584;2023-05-07T08:22:28;2.13;;;1.52;;
24485;SDS011;13449;49.374;8.584;2023-05-07T08:24:54;5.40;;;1.67;;
24485;SDS011;13449;49.374;8.584;2023-05-07T08:27:21;5.00;;;1.83;;
24485;SDS011;13449;49.374;8.584;2023-05-07T08:29:53;5.38;;;1.35;;
24485;SDS011;13449;49.374;8.584;2023-05-07T08:32:20;1.52;;;1.42;;
24485;SDS011;13449;49.374;8.584;2023-05-07T08:34:50;2.97;;;1.58;;
24485;SDS011;13449;49.374;8.584;2023-05-07T08:37:17;2.00;;;1.38;;
24485;SDS011;13449;49.374;8.584;2023-05-07T08:39:43;1.67;;;1.35;;
24485;SDS011;13449;49.374;8.584;2023-05-07T08:42:10;3.28;;;1.35;;
24485;SDS011;13449;49.374;8.584;2023-05-07T08:44:41;1.75;;;1.00;;
24485;SDS011;13449;49.374;8.584;2023-05-07T08:47:13;2.47;;;1.20;;
24485;SDS011;13449;49.374;8.584;2023-05-07T08:49:39;4.45;;;1.38;;
24485;SDS011;13449;49.374;8.584;2023-05-07T08:52:08;1.23;;;1.02;;
24485;SDS011;13449;49.374;8.584;2023-05-07T08:54:37;1.83;;;1.15;;
24485;SDS011;13449;49.374;8.584;2023-05-07T08:57:07;2.78;;;1.10;;
24485;SDS011;13449;49.374;8.584;2023-05-07T08:59:34;2.08;;;1.10;;
24485;SDS011;13449;49.374;8.584;2023-05-07T09:02:03;7.90;;;1.17;;
24485;SDS011;13449;49.374;8.584;2023-05-07T09:04:35;1.63;;;0.98;;
24485;SDS011;13449;49.374;8.584;2023-05-07T09:07:04;2.03;;;1.17;;
24485;SDS011;13449;49.374;8.584;2023-05-07T09:09:33;0.93;;;0.82;;
24485;SDS011;13449;49.374;8.584;2023-05-07T09:14:30;2.55;;;1.00;;
24485;SDS011;13449;49.374;8.584;2023-05-07T09:16:56;3.40;;;1.25;;
24485;SDS011;13449;49.374;8.584;2023-05-07T09:19:23;1.10;;;1.00;;
24485;SDS011;13449;49.374;8.584;2023-05-07T09:22:00;2.83;;;1.30;;
24485;SDS011;13449;49.374;8.584;2023-05-07T09:24:32;5.80;;;1.13;;
24485;SDS011;13449;49.374;8.584;2023-05-07T09:27:04;1.40;;;1.00;;
24485;SDS011;13449;49.374;8.584;2023-05-07T09:29:31;4.70;;;1.15;;
24485;SDS011;13449;49.374;8.584;2023-05-07T09:32:07;1.98;;;1.20;;
24485;SDS011;13449;49.374;8.584;2023-05-07T09:34:35;1.65;;;1.05;;
24485;SDS011;13449;49.374;8.584;2023-05-07T09:37:02;2.83;;;1.58;;
24485;SDS011;13449;49.374;8.584;2023-05-07T09:39:40;4.63;;;1.30;;
24485;SDS011;13449;49.374;8.584;2023-05-07T09:42:13;4.53;;;1.25;;
24485;SDS011;13449;49.374;8.584;2023-05-07T09:44:43;3.35;;;1.48;;
24485;SDS011;13449;49.374;8.584;2023-05-07T09:47:10;5.60;;;1.60;;
24485;SDS011;13449;49.374;8.584;2023-05-07T09:49:44;3.80;;;1.70;;
24485;SDS011;13449;49.374;8.584;2023-05-07T09:52:14;2.20;;;1.58;;
24485;SDS011;13449;49.374;8.584;2023-05-07T09:54:43;7.53;;;1.42;;
24485;SDS011;13449;49.374;8.584;2023-05-07T09:57:11;1.63;;;1.30;;
24485;SDS011;13449;49.374;8.584;2023-05-07T09:59:38;1.63;;;1.52;;
24485;SDS011;13449;49.374;8.584;2023-05-07T10:02:06;4.50;;;1.90;;
24485;SDS011;13449;49.374;8.584;2023-05-07T10:04:36;1.45;;;1.35;;
24485;SDS011;13449;49.374;8.584;2023-05-07T10:07:08;4.47;;;1.90;;
24485;SDS011;13449;49.374;8.584;2023-05-07T10:09:35;1.33;;;1.23;;
24485;SDS011;13449;49.374;8.584;2023-05-07T10:12:05;3.85;;;1.30;;
24485;SDS011;13449;49.374;8.584;2023-05-07T10:14:32;2.00;;;1.42;;
24485;SDS011;13449;49.374;8.584;2023-05-07T10:16:59;4.53;;;1.13;;
24485;SDS011;13449;49.374;8.584;2023-05-07T10:19:28;1.75;;;1.10;;
24485;SDS011;13449;49.374;8.584;2023-05-07T10:21:56;3.80;;;1.30;;
24485;SDS011;13449;49.374;8.584;2023-05-07T10:24:33;4.28;;;1.15;;
24485;SDS011;13449;49.374;8.584;2023-05-07T10:27:09;2.50;;;1.15;;
24485;SDS011;13449;49.374;8.584;2023-05-07T10:32:39;8.20;;;1.40;;
24485;SDS011;13449;49.374;8.584;2023-05-07T10:35:18;1.75;;;1.20;;
24485;SDS011;13449;49.374;8.584;2023-05-07T10:37:50;2.35;;;1.23;;
24485;SDS011;13449;49.374;8.584;2023-05-07T10:40:17;1.63;;;1.27;;
24485;SDS011;13449;49.374;8.584;2023-05-07T10:42:53;2.03;;;1.33;;
24485;SDS011;13449;49.374;8.584;2023-05-07T10:45:26;5.78;;;1.50;;
24485;SDS011;13449;49.374;8.584;2023-05-07T10:50:41;3.95;;;1.30;;
24485;SDS011;13449;49.374;8.584;2023-05-07T10:55:50;3.97;;;1.50;;
24485;SDS011;13449;49.374;8.584;2023-05-07T11:00:58;3.88;;;2.10;;
24485;SDS011;13449;49.374;8.584;2023-05-07T11:03:25;5.50;;;1.70;;
24485;SDS011;13449;49.374;8.584;2023-05-07T11:06:08;1.92;;;1.10;;
24485;SDS011;13449;49.374;8.584;2023-05-07T11:14:14;6.20;;;5.05;;
24485;SDS011;13449;49.374;8.584;2023-05-07T11:17:02;6.50;;;2.33;;
24485;SDS011;13449;49.374;8.584;2023-05-07T11:19:48;6.65;;;2.88;;
24485;SDS011;13449;49.374;8.584;2023-05-07T11:24:59;3.40;;;2.70;;
24485;SDS011;13449;49.374;8.584;2023-05-07T11:27:26;5.07;;;3.03;;
24485;SDS011;13449;49.374;8.584;2023-05-07T11:29:53;3.40;;;3.10;;
24485;SDS011;13449;49.374;8.584;2023-05-07T11:32:22;2.33;;;1.60;;
24485;SDS011;13449;49.374;8.584;2023-05-07T11:34:51;5.38;;;4.03;;
24485;SDS011;13449;49.374;8.584;2023-05-07T11:37:19;1.40;;;1.30;;
24485;SDS011;13449;49.374;8.584;2023-05-07T11:39:52;2.03;;;1.77;;
24485;SDS011;13449;49.374;8.584;2023-05-07T11:45:00;3.67;;;1.17;;
24485;SDS011;13449;49.374;8.584;2023-05-07T11:47:29;2.05;;;1.67;;
24485;SDS011;13449;49.374;8.584;2023-05-07T11:49:56;1.40;;;0.98;;
24485;SDS011;13449;49.374;8.584;2023-05-07T11:52:30;1.58;;;1.48;;
24485;SDS011;13449;49.374;8.584;2023-05-07T11:54:58;6.38;;;2.58;;
24485;SDS011;13449;49.374;8.584;2023-05-07T11:57:28;8.25;;;2.33;;
24485;SDS011;13449;49.374;8.584;2023-05-07T11:59:55;4.07;;;2.25;;
24485;SDS011;13449;49.374;8.584;2023-05-07T12:02:25;1.85;;;1.20;;
24485;SDS011;13449;49.374;8.584;2023-05-07T12:04:54;3.45;;;1.60;;
24485;SDS011;13449;49.374;8.584;2023-05-07T12:07:21;8.75;;;5.05;;
24485;SDS011;13449;49.374;8.584;2023-05-07T12:09:49;1.98;;;1.50;;
24485;SDS011;13449;49.374;8.584;2023-05-07T12:12:16;1.33;;;1.20;;
24485;SDS011;13449;49.374;8.584;2023-05-07T12:14:43;3.80;;;1.50;;
24485;SDS011;13449;49.374;8.584;2023-05-07T12:17:12;5.07;;;1.98;;
24485;SDS011;13449;49.374;8.584;2023-05-07T12:19:40;2.88;;;1.00;;
24485;SDS011;13449;49.374;8.584;2023-05-07T12:22:08;2.67;;;0.90;;
24485;SDS011;13449;49.374;8.584;2023-05-07T12:24:49;7.82;;;1.45;;
24485;SDS011;13449;49.374;8.584;2023-05-07T12:27:25;4.13;;;3.72;;
24485;SDS011;13449;49.374;8.584;2023-05-07T12:29:52;6.20;;;3.42;;
24485;SDS011;13449;49.374;8.584;2023-05-07T12:32:21;2.90;;;1.70;;
24485;SDS011;13449;49.374;8.584;2023-05-07T12:34:51;3.03;;;1.42;;
24485;SDS011;13449;49.374;8.584;2023-05-07T12:37:24;3.03;;;2.47;;
24485;SDS011;13449;49.374;8.584;2023-05-07T12:40:03;5.93;;;1.83;;
24485;SDS011;13449;49.374;8.584;2023-05-07T12:42:37;2.35;;;1.85;;
24485;SDS011;13449;49.374;8.584;2023-05-07T12:45:11;4.45;;;1.70;;
24485;SDS011;13449;49.374;8.584;2023-05-07T12:47:43;2.88;;;1.23;;
24485;SDS011;13449;49.374;8.584;2023-05-07T12:50:15;1.25;;;0.82;;
24485;SDS011;13449;49.374;8.584;2023-05-07T12:52:46;1.67;;;0.80;;
24485;SDS011;13449;49.374;8.584;2023-05-07T12:55:14;1.02;;;0.60;;
24485;SDS011;13449;49.374;8.584;2023-05-07T12:57:42;2.50;;;1.05;;
24485;SDS011;13449;49.374;8.584;2023-05-07T13:00:12;7.40;;;1.50;;
24485;SDS011;13449;49.374;8.584;2023-05-07T13:02:43;1.35;;;0.90;;
24485;SDS011;13449;49.374;8.584;2023-05-07T13:05:11;1.10;;;1.00;;
24485;SDS011;13449;49.374;8.584;2023-05-07T13:07:40;1.67;;;1.30;;
24485;SDS011;13449;49.374;8.584;2023-05-07T13:10:07;3.47;;;1.13;;
24485;SDS011;13449;49.374;8.584;2023-05-07T13:12:34;3.17;;;0.63;;
24485;SDS011;13449;49.374;8.584;2023-05-07T13:15:01;2.17;;;1.35;;
24485;SDS011;13449;49.374;8.584;2023-05-07T13:17:30;3.13;;;1.70;;
24485;SDS011;13449;49.374;8.584;2023-05-07T13:19:57;2.95;;;1.00;;
24485;SDS011;13449;49.374;8.584;2023-05-07T13:22:24;2.72;;;0.93;;
24485;SDS011;13449;49.374;8.584;2023-05-07T13:24:50;1.60;;;0.90;;
24485;SDS011;13449;49.374;8.584;2023-05-07T13:27:17;5.15;;;1.10;;
24485;SDS011;13449;49.374;8.584;2023-05-07T13:29:45;1.35;;;0.98;;
24485;SDS011;13449;49.374;8.584;2023-05-07T13:32:11;1.15;;;0.93;;
24485;SDS011;13449;49.374;8.584;2023-05-07T13:34:38;2.03;;;1.23;;
24485;SDS011;13449;49.374;8.584;2023-05-07T13:37:04;2.10;;;1.30;;
24485;SDS011;13449;49.374;8.584;2023-05-07T13:39:36;4.00;;;1.38;;
24485;SDS011;13449;49.374;8.584;2023-05-07T13:42:03;1.40;;;1.00;;
24485;SDS011;13449;49.374;8.584;2023-05-07T13:44:29;1.67;;;1.10;;
24485;SDS011;13449;49.374;8.584;2023-05-07T13:46:58;1.15;;;1.08;;
24485;SDS011;13449;49.374;8.584;2023-05-07T13:49:24;2.60;;;1.20;;
24485;SDS011;13449;49.374;8.584;2023-05-07T13:51:51;1.13;;;0.77;;
24485;SDS011;13449;49.374;8.584;2023-05-07T13:54:19;1.70;;;0.93;;
24485;SDS011;13449;49.374;8.584;2023-05-07T13:56:46;2.25;;;1.02;;
24485;SDS011;13449;49.374;8.584;2023-05-07T13:59:14;2.10;;;1.40;;
24485;SDS011;13449;49.374;8.584;2023-05-07T14:01:42;10.02;;;1.70;;
24485;SDS011;13449;49.374;8.584;2023-05-07T14:04:09;1.33;;;1.15;;
24485;SDS011;13449;49.374;8.584;2023-05-07T14:06:38;2.42;;;1.30;;
24485;SDS011;13449;49.374;8.584;2023-05-07T14:09:07;3.30;;;1.48;;
24485;SDS011;13449;49.374;8.584;2023-05-07T14:11:39;6.30;;;1.33;;
24485;SDS011;13449;49.374;8.584;2023-05-07T14:14:12;3.77;;;1.13;;
24485;SDS011;13449;49.374;8.584;2023-05-07T14:16:39;2.25;;;1.33;;
24485;SDS011;13449;49.374;8.584;2023-05-07T14:19:08;2.20;;;1.25;;
24485;SDS011;13449;49.374;8.584;2023-05-07T14:21:35;3.58;;;1.15;;
24485;SDS011;13449;49.374;8.584;2023-05-07T14:24:01;7.45;;;1.15;;
24485;SDS011;13449;49.374;8.584;2023-05-07T14:26:28;1.05;;;0.80;;
24485;SDS011;13449;49.374;8.584;2023-05-07T14:28:55;6.80;;;1.10;;
24485;SDS011;13449;49.374;8.584;2023-05-07T14:31:26;2.50;;;1.35;;
24485;SDS011;13449;49.374;8.584;2023-05-07T14:33:53;2.42;;;1.25;;
24485;SDS011;13449;49.374;8.584;2023-05-07T14:36:20;5.90;;;1.23;;
24485;SDS011;13449;49.374;8.584;2023-05-07T14:38:47;2.47;;;1.33;;
24485;SDS011;13449;49.374;8.584;2023-05-07T14:41:15;6.85;;;3.17;;
24485;SDS011;13449;49.374;8.584;2023-05-07T14:43:42;3.88;;;3.20;;
24485;SDS011;13449;49.374;8.584;2023-05-07T14:46:08;8.80;;;1.75;;
24485;SDS011;13449;49.374;8.584;2023-05-07T14:48:35;19.98;;;2.20;;
24485;SDS011;13449;49.374;8.584;2023-05-07T14:51:01;8.55;;;2.20;;
24485;SDS011;13449;49.374;8.584;2023-05-07T14:53:30;21.05;;;2.30;;
24485;SDS011;13449;49.374;8.584;2023-05-07T14:55:59;9.70;;;1.67;;
24485;SDS011;13449;49.374;8.584;2023-05-07T14:58:28;23.25;;;2.20;;
24485;SDS011;13449;49.374;8.584;2023-05-07T15:00:55;9.73;;;1.80;;
24485;SDS011;13449;49.374;8.584;2023-05-07T15:03:24;5.35;;;1.70;;
24485;SDS011;13449;49.374;8.584;2023-05-07T15:05:51;10.02;;;1.60;;
24485;SDS011;13449;49.374;8.584;2023-05-07T15:08:18;3.30;;;2.05;;
24485;SDS011;13449;49.374;8.584;2023-05-07T15:10:44;8.23;;;2.15;;
24485;SDS011;13449;49.374;8.584;2023-05-07T15:13:11;7.97;;;2.35;;
24485;SDS011;13449;49.374;8.584;2023-05-07T15:15:41;4.15;;;2.25;;
24485;SDS011;13449;49.374;8.584;2023-05-07T15:18:11;5.88;;;2.00;;